Time;durP1;ratioP1;P1;durP2;ratioP2;P2;SDS_P1;SDS_P2;PMS_P1;PMS_P2;Temp;Humidity;BMP_temperature;BMP_pressure;BME280_temperature;BME280_humidity;BME280_pressure;Samples;Min_cycle;Max_cycle;Signal;HPM_P1;HPM_P2
2021/04/07 00:03:20;;;;;;;58.05;20.45;;;;;;;;;;8294877;28;20371;-66
2021/04/07 00:07:25;;;;;;;68.13;20.75;;;;;;;;;;8295329;28;20394;-66
2021/04/07 00:11:29;;;;;;;60.03;19.58;;;;;;;;;;8295240;28;20402;-66
2021/04/07 00:15:34;;;;;;;56.65;20.23;;;;;;;;;;8294708;28;20477;-67
2021/04/07 00:19:39;;;;;;;49.33;17.88;;;;;;;;;;8294543;28;20049;-66
2021/04/07 00:23:44;;;;;;;52.30;19.58;;;;;;;;;;8296618;28;20071;-67
2021/04/07 00:27:54;;;;;;;49.90;20.25;;;;;;;;;;8294511;28;20499;-66
2021/04/07 00:31:58;;;;;;;49.88;19.85;;;;;;;;;;8294178;28;20328;-66
2021/04/07 00:36:08;;;;;;;51.45;19.83;;;;;;;;;;8294040;28;20048;-66
2021/04/07 00:40:14;;;;;;;53.30;18.38;;;;;;;;;;8294425;28;20067;-66
2021/04/07 00:44:17;;;;;;;54.90;19.65;;;;;;;;;;8293452;28;20044;-66
2021/04/07 00:48:21;;;;;;;57.03;19.15;;;;;;;;;;8294272;28;20472;-67
2021/04/07 00:52:27;;;;;;;52.78;19.50;;;;;;;;;;8294957;28;20364;-66
2021/04/07 00:56:31;;;;;;;42.63;17.15;;;;;;;;;;8293947;28;20497;-66
2021/04/07 01:00:36;;;;;;;57.58;19.70;;;;;;;;;;8293916;28;20490;-66
2021/04/07 01:04:40;;;;;;;53.85;19.52;;;;;;;;;;8302875;28;20483;-66
2021/04/07 01:08:45;;;;;;;90.47;26.38;;;;;;;;;;8295002;28;20451;-66
2021/04/07 01:12:52;;;;;;;56.75;22.17;;;;;;;;;;8293154;28;20491;-66
2021/04/07 01:16:55;;;;;;;55.22;19.27;;;;;;;;;;8294198;28;20057;-66
2021/04/07 01:21:01;;;;;;;72.70;22.55;;;;;;;;;;8291665;28;20451;-67
2021/04/07 01:25:08;;;;;;;59.08;21.67;;;;;;;;;;8292753;28;20455;-67
2021/04/07 01:29:13;;;;;;;45.55;20.05;;;;;;;;;;8292935;28;20452;-67
2021/04/07 01:33:22;;;;;;;64.18;19.25;;;;;;;;;;8293366;28;20048;-66
2021/04/07 01:37:26;;;;;;;;;;;;;;;;;;8291317;28;20501;-66
2021/04/07 01:41:31;;;;;;;50.78;18.92;;;;;;;;;;8291379;28;20327;-66
2021/04/07 01:45:35;;;;;;;81.03;24.42;;;;;;;;;;8290883;28;20463;-66
2021/04/07 01:49:39;;;;;;;63.22;23.63;;;;;;;;;;8291641;28;20479;-66
2021/04/07 01:53:44;;;;;;;51.33;20.55;;;;;;;;;;8291126;28;20371;-67
2021/04/07 01:57:48;;;;;;;68.03;25.88;;;;;;;;;;8307220;28;20493;-65
2021/04/07 02:01:54;;;;;;;57.80;22.30;;;;;;;;;;8292350;28;20115;-66
2021/04/07 02:05:59;;;;;;;70.30;28.30;;;;;;;;;;8289817;28;20105;-66
2021/04/07 02:10:08;;;;;;;60.42;26.73;;;;;;;;;;8290756;28;20374;-69
2021/04/07 02:14:17;;;;;;;72.75;25.00;;;;;;;;;;8292232;28;20474;-67
2021/04/07 02:18:21;;;;;;;70.57;29.13;;;;;;;;;;8291278;28;20499;-68
2021/04/07 02:22:26;;;;;;;63.45;28.25;;;;;;;;;;8290666;28;20358;-66
2021/04/07 02:26:34;;;;;;;84.97;35.92;;;;;;;;;;8289217;28;20356;-66
2021/04/07 02:30:38;;;;;;;92.27;28.33;;;;;;;;;;8290829;28;20383;-67
2021/04/07 02:34:43;;;;;;;79.28;28.20;;;;;;;;;;8290769;28;20463;-67
2021/04/07 02:38:48;;;;;;;52.97;22.02;;;;;;;;;;8291465;28;20439;-67
2021/04/07 02:42:52;;;;;;;54.30;22.60;;;;;;;;;;8290515;28;20366;-67
2021/04/07 02:46:55;;;;;;;51.63;18.92;;;;;;;;;;8291140;28;20053;-66
2021/04/07 02:50:59;;;;;;;45.75;17.95;;;;;;;;;;8290923;28;20455;-66
2021/04/07 02:55:04;;;;;;;48.22;19.90;;;;;;;;;;8290370;28;20459;-65
2021/04/07 02:59:09;;;;;;;42.90;19.20;;;;;;;;;;8290423;28;20358;-66
2021/04/07 03:03:13;;;;;;;45.42;19.10;;;;;;;;;;8289115;28;20367;-66
2021/04/07 03:07:17;;;;;;;58.45;20.80;;;;;;;;;;8292252;28;20474;-66
2021/04/07 03:11:22;;;;;;;42.22;18.20;;;;;;;;;;8291278;28;20516;-66
2021/04/07 03:15:27;;;;;;;51.40;18.75;;;;;;;;;;8289878;28;20360;-66
2021/04/07 03:19:31;;;;;;;53.63;20.83;;;;;;;;;;8290189;28;20080;-67
2021/04/07 03:23:34;;;;;;;58.58;19.05;;;;;;;;;;8290069;28;20045;-67
2021/04/07 03:27:38;;;;;;;50.78;18.02;;;;;;;;;;8288880;28;20399;-66
2021/04/07 03:31:43;;;;;;;46.40;18.17;;;;;;;;;;8289694;28;20451;-66
2021/04/07 03:35:49;;;;;;;59.97;19.70;;;;;;;;;;8289686;28;20063;-66
2021/04/07 03:39:53;;;;;;;64.30;19.42;;;;;;;;;;8289847;28;20458;-65
2021/04/07 03:43:57;;;;;;;43.45;18.92;;;;;;;;;;8291116;28;20348;-65
2021/04/07 03:48:03;;;;;;;54.30;19.85;;;;;;;;;;8290153;28;20490;-65
2021/04/07 03:52:07;;;;;;;54.80;19.50;;;;;;;;;;8288309;28;20386;-66
2021/04/07 03:56:12;;;;;;;62.08;16.95;;;;;;;;;;8288684;28;20053;-66
2021/04/07 04:00:17;;;;;;;55.08;18.63;;;;;;;;;;8289933;28;20436;-66
2021/04/07 04:04:21;;;;;;;38.55;16.50;;;;;;;;;;8289281;28;20375;-65
2021/04/07 04:08:25;;;;;;;38.92;17.10;;;;;;;;;;8292965;28;20044;-66
2021/04/07 04:12:30;;;;;;;37.00;16.25;;;;;;;;;;8294646;28;20477;-65
2021/04/07 04:16:36;;;;;;;40.00;16.23;;;;;;;;;;8296029;28;20498;-65
2021/04/07 04:20:40;;;;;;;40.65;17.00;;;;;;;;;;8295301;28;20060;-66
2021/04/07 04:24:47;;;;;;;39.00;17.13;;;;;;;;;;8294833;28;20485;-67
2021/04/07 04:28:51;;;;;;;44.47;16.95;;;;;;;;;;8296269;28;20364;-66
2021/04/07 04:32:56;;;;;;;33.33;15.50;;;;;;;;;;8295594;28;20044;-67
2021/04/07 04:37:01;;;;;;;31.58;16.08;;;;;;;;;;8293870;28;20057;-66
2021/04/07 04:41:05;;;;;;;44.38;15.77;;;;;;;;;;8296969;28;20375;-66
2021/04/07 04:45:11;;;;;;;40.17;15.50;;;;;;;;;;8294499;28;20052;-66
2021/04/07 04:49:15;;;;;;;35.88;17.05;;;;;;;;;;8294144;28;20048;-67
2021/04/07 04:53:19;;;;;;;35.13;16.25;;;;;;;;;;8293927;28;20455;-66
2021/04/07 04:57:23;;;;;;;49.15;19.83;;;;;;;;;;8293306;28;20489;-66
2021/04/07 05:01:28;;;;;;;58.95;24.77;;;;;;;;;;8295976;28;20336;-67
2021/04/07 05:05:32;;;;;;;61.25;25.73;;;;;;;;;;8295681;28;20056;-67
2021/04/07 05:09:37;;;;;;;59.65;25.65;;;;;;;;;;8294418;28;20384;-67
2021/04/07 05:13:42;;;;;;;73.07;29.63;;;;;;;;;;8292733;28;20391;-67
2021/04/07 05:17:47;;;;;;;740.63;344.88;;;;;;;;;;8292882;28;20464;-69
2021/04/07 05:21:53;;;;;;;546.97;227.52;;;;;;;;;;8292829;28;20489;-68
2021/04/07 05:25:57;;;;;;;260.67;94.15;;;;;;;;;;8294628;28;20463;-68
2021/04/07 05:30:01;;;;;;;132.23;51.58;;;;;;;;;;8308383;28;20366;-68
2021/04/07 05:34:04;;;;;;;80.63;32.35;;;;;;;;;;8293590;28;20048;-68
2021/04/07 05:38:09;;;;;;;78.30;29.63;;;;;;;;;;8292809;28;20371;-67
2021/04/07 05:42:13;;;;;;;59.45;23.13;;;;;;;;;;8290369;28;20471;-67
2021/04/07 05:46:17;;;;;;;59.22;23.45;;;;;;;;;;8290688;28;20478;-68
2021/04/07 05:50:20;;;;;;;53.33;20.23;;;;;;;;;;8290541;28;20371;-68
2021/04/07 05:54:26;;;;;;;38.03;18.67;;;;;;;;;;8292420;28;20475;-68
2021/04/07 05:58:30;;;;;;;77.10;33.42;;;;;;;;;;8292029;28;20481;-69
2021/04/07 06:02:34;;;;;;;58.30;25.98;;;;;;;;;;8292744;28;20450;-69
2021/04/07 06:06:38;;;;;;;51.72;26.13;;;;;;;;;;8292108;28;20483;-69
2021/04/07 06:10:44;;;;;;;73.80;34.67;;;;;;;;;;8290473;28;20411;-69
2021/04/07 06:14:48;;;;;;;51.85;23.00;;;;;;;;;;8291906;28;20467;-69
2021/04/07 06:18:53;;;;;;;41.40;20.60;;;;;;;;;;8292764;28;20341;-69
2021/04/07 06:22:58;;;;;;;85.55;45.67;;;;;;;;;;8294233;28;20348;-69
2021/04/07 06:27:02;;;;;;;46.05;20.40;;;;;;;;;;8291675;28;20056;-68
2021/04/07 06:31:07;;;;;;;44.30;21.95;;;;;;;;;;8294472;28;20367;-68
2021/04/07 06:35:12;;;;;;;59.58;24.88;;;;;;;;;;8290194;28;20665;-70
2021/04/07 06:39:17;;;;;;;58.75;32.92;;;;;;;;;;8293266;28;20333;-69
2021/04/07 06:43:28;;;;;;;45.70;24.45;;;;;;;;;;8291485;28;20053;-70
2021/04/07 06:47:34;;;;;;;27.80;14.40;;;;;;;;;;8306994;28;20451;-70
2021/04/07 06:51:43;;;;;;;23.10;11.18;;;;;;;;;;8292695;28;20370;-71
2021/04/07 06:55:47;;;;;;;24.63;10.27;;;;;;;;;;8290003;28;20402;-71
2021/04/07 06:59:50;;;;;;;23.50;10.75;;;;;;;;;;8291718;28;20074;-70
2021/04/07 07:03:57;;;;;;;21.23;9.77;;;;;;;;;;8291827;28;20402;-71
2021/04/07 07:08:11;;;;;;;16.48;9.05;;;;;;;;;;8291836;28;20471;-70
2021/04/07 07:12:16;;;;;;;22.58;9.52;;;;;;;;;;8291240;28;20375;-70
2021/04/07 07:16:27;;;;;;;23.63;10.40;;;;;;;;;;8292269;28;20374;-70
2021/04/07 07:20:41;;;;;;;17.13;8.93;;;;;;;;;;8291615;28;20456;-70
2021/04/07 07:24:45;;;;;;;17.70;8.77;;;;;;;;;;8288836;28;20463;-70
2021/04/07 07:28:55;;;;;;;14.75;8.15;;;;;;;;;;8290944;28;20463;-72
2021/04/07 07:32:59;;;;;;;11.02;5.15;;;;;;;;;;8289401;28;20060;-70
2021/04/07 07:37:06;;;;;;;12.10;5.47;;;;;;;;;;8288869;28;20154;-70
2021/04/07 07:41:11;;;;;;;13.57;7.40;;;;;;;;;;8290631;28;20463;-71
2021/04/07 07:45:35;;;;;;;88.43;33.20;;;;;;;;;;8292269;28;20406;-71
2021/04/07 07:49:39;;;;;;;62.03;36.58;;;;;;;;;;8295414;28;20468;-71
2021/04/07 07:53:46;;;;;;;22.85;11.30;;;;;;;;;;8293288;28;20405;-71
2021/04/07 07:57:57;;;;;;;31.75;19.40;;;;;;;;;;8292691;28;20450;-70
2021/04/07 08:02:13;;;;;;;18.25;9.98;;;;;;;;;;8293986;28;20059;-70
2021/04/07 08:06:18;;;;;;;19.92;11.27;;;;;;;;;;8294433;28;20363;-70
2021/04/07 08:10:37;;;;;;;29.23;14.02;;;;;;;;;;8295009;28;20504;-71
2021/04/07 08:14:46;;;;;;;25.77;12.75;;;;;;;;;;8293225;28;20494;-70
2021/04/07 08:18:52;;;;;;;24.02;12.38;;;;;;;;;;8279719;28;20473;-71
2021/04/07 08:22:57;;;;;;;15.05;7.40;;;;;;;;;;8297111;28;20514;-71
2021/04/07 08:27:02;;;;;;;18.67;8.38;;;;;;;;;;8294458;28;20057;-71
2021/04/07 08:31:16;;;;;;;37.90;13.02;;;;;;;;;;8295190;28;20490;-70
2021/04/07 08:35:20;;;;;;;14.13;7.80;;;;;;;;;;8293750;28;20071;-72
2021/04/07 08:39:25;;;;;;;11.38;6.07;;;;;;;;;;8290251;28;20350;-70
2021/04/07 08:43:32;;;;;;;14.38;6.00;;;;;;;;;;8296554;28;20111;-72
2021/04/07 08:47:43;;;;;;;12.02;4.97;;;;;;;;;;8296761;28;20397;-71
2021/04/07 08:51:48;;;;;;;12.40;5.40;;;;;;;;;;8293355;28;20365;-70
2021/04/07 08:55:54;;;;;;;10.63;4.78;;;;;;;;;;8290789;28;20418;-70
2021/04/07 09:00:01;;;;;;;7.18;4.10;;;;;;;;;;8292654;28;20498;-70
2021/04/07 09:04:13;;;;;;;6.80;3.60;;;;;;;;;;8292583;28;20345;-70
2021/04/07 09:08:26;;;;;;;7.57;3.65;;;;;;;;;;8294474;28;20391;-71
2021/04/07 09:12:32;;;;;;;9.35;3.00;;;;;;;;;;8295273;28;20471;-70
2021/04/07 09:16:39;;;;;;;6.88;4.25;;;;;;;;;;8295349;28;20044;-71
2021/04/07 09:20:46;;;;;;;6.90;3.28;;;;;;;;;;8293169;28;20493;-71
2021/04/07 09:24:54;;;;;;;4.50;3.17;;;;;;;;;;8292059;28;20479;-70
2021/04/07 09:28:58;;;;;;;5.18;3.38;;;;;;;;;;8292180;28;20049;-70
2021/04/07 09:33:03;;;;;;;8.77;3.70;;;;;;;;;;8291707;28;20370;-70
2021/04/07 09:37:09;;;;;;;5.78;3.30;;;;;;;;;;8290681;28;20475;-70
2021/04/07 09:41:18;;;;;;;20.90;6.88;;;;;;;;;;8291754;28;20382;-70
2021/04/07 09:45:27;;;;;;;32.20;9.70;;;;;;;;;;8291440;28;20569;-70
2021/04/07 09:49:32;;;;;;;23.42;6.88;;;;;;;;;;8291076;28;20359;-70
2021/04/07 09:53:37;;;;;;;15.88;5.32;;;;;;;;;;8292306;28;20067;-70
2021/04/07 09:57:41;;;;;;;14.23;5.28;;;;;;;;;;8290594;28;20382;-70
2021/04/07 10:01:46;;;;;;;17.60;6.47;;;;;;;;;;8290957;28;20374;-70
2021/04/07 10:05:50;;;;;;;7.00;4.90;;;;;;;;;;8293551;28;20434;-69
2021/04/07 10:09:58;;;;;;;7.47;4.13;;;;;;;;;;8294133;28;20471;-70
2021/04/07 10:14:02;;;;;;;4.80;3.05;;;;;;;;;;8290031;28;20467;-70
2021/04/07 10:18:11;;;;;;;8.98;3.33;;;;;;;;;;8289233;28;20463;-69
2021/04/07 10:22:27;;;;;;;6.70;3.63;;;;;;;;;;8289408;28;20387;-70
2021/04/07 10:26:41;;;;;;;5.93;3.90;;;;;;;;;;8291981;28;20049;-70
2021/04/07 10:30:46;;;;;;;6.93;4.50;;;;;;;;;;8290448;28;20378;-70
2021/04/07 10:35:00;;;;;;;8.00;5.38;;;;;;;;;;8307786;28;20498;-70
2021/04/07 10:39:20;;;;;;;9.73;4.93;;;;;;;;;;8291589;28;20040;-70
2021/04/07 10:43:34;;;;;;;11.38;6.45;;;;;;;;;;8290605;28;20475;-70
2021/04/07 10:47:40;;;;;;;8.25;4.10;;;;;;;;;;8305355;28;20475;-70
2021/04/07 10:51:45;;;;;;;6.07;3.83;;;;;;;;;;8305984;28;20465;-70
2021/04/07 10:55:49;;;;;;;4.70;3.33;;;;;;;;;;8288131;28;20479;-69
2021/04/07 10:59:52;;;;;;;5.85;3.33;;;;;;;;;;8291667;28;20075;-69
2021/04/07 11:03:57;;;;;;;5.50;3.13;;;;;;;;;;8287779;28;20475;-70
2021/04/07 11:08:05;;;;;;;13.13;5.57;;;;;;;;;;8288816;28;20382;-70
2021/04/07 11:12:11;;;;;;;8.93;5.25;;;;;;;;;;8291555;28;20044;-71
2021/04/07 11:16:16;;;;;;;5.60;3.97;;;;;;;;;;8290045;28;20367;-70
2021/04/07 11:20:22;;;;;;;9.80;3.92;;;;;;;;;;8296763;28;20052;-69
2021/04/07 11:24:28;;;;;;;6.00;3.50;;;;;;;;;;8299440;28;20371;-69
2021/04/07 11:28:32;;;;;;;13.07;4.68;;;;;;;;;;8296355;28;20379;-70
2021/04/07 11:32:39;;;;;;;8.70;4.32;;;;;;;;;;8297168;28;20500;-70
2021/04/07 11:37:16;;;;;;;9.60;4.50;;;;;;;;;;8299559;28;20363;-71
2021/04/07 11:41:50;;;;;;;7.38;4.43;;;;;;;;;;8295693;28;20406;-70
2021/04/07 11:45:54;;;;;;;8.27;4.10;;;;;;;;;;8295070;28;20463;-71
2021/04/07 11:50:16;;;;;;;5.25;3.13;;;;;;;;;;8297844;28;20375;-70
2021/04/07 11:54:22;;;;;;;5.47;2.70;;;;;;;;;;8296498;28;20375;-70
2021/04/07 11:58:26;;;;;;;5.18;2.90;;;;;;;;;;8295352;28;20378;-70
2021/04/07 12:02:29;;;;;;;8.55;3.83;;;;;;;;;;8294707;28;20462;-70
2021/04/07 12:06:34;;;;;;;7.95;4.15;;;;;;;;;;8294602;28;20068;-68
2021/04/07 12:10:39;;;;;;;4.63;2.75;;;;;;;;;;8296637;28;20481;-69
2021/04/07 12:14:43;;;;;;;6.43;4.20;;;;;;;;;;8295293;28;20375;-70
2021/04/07 12:18:49;;;;;;;7.05;4.10;;;;;;;;;;8294069;28;20066;-70
2021/04/07 12:22:53;;;;;;;6.50;4.40;;;;;;;;;;8294485;28;20426;-69
2021/04/07 12:26:59;;;;;;;7.50;4.72;;;;;;;;;;8293912;28;20382;-71
2021/04/07 12:31:04;;;;;;;19.70;12.68;;;;;;;;;;8293644;28;21317;-70
2021/04/07 12:35:11;;;;;;;37.30;24.45;;;;;;;;;;8294130;28;20340;-69
2021/04/07 12:39:35;;;;;;;22.92;15.32;;;;;;;;;;8292283;28;20501;-70
2021/04/07 12:43:40;;;;;;;22.48;12.23;;;;;;;;;;8293488;28;20364;-70
2021/04/07 12:47:44;;;;;;;28.17;18.08;;;;;;;;;;8292655;28;20475;-71
2021/04/07 12:51:50;;;;;;;20.23;11.48;;;;;;;;;;8292011;28;20382;-70
2021/04/07 12:55:53;;;;;;;37.28;20.92;;;;;;;;;;8289533;28;20478;-72
2021/04/07 13:00:06;;;;;;;30.05;15.73;;;;;;;;;;8293030;28;20103;-72
2021/04/07 13:04:10;;;;;;;28.58;15.43;;;;;;;;;;8308493;28;20063;-72
2021/04/07 13:08:15;;;;;;;17.52;9.07;;;;;;;;;;8291702;28;20417;-74
2021/04/07 13:12:19;;;;;;;39.13;16.02;;;;;;;;;;8293994;28;20371;-72
2021/04/07 13:16:23;;;;;;;16.50;8.73;;;;;;;;;;8295059;28;20454;-72
2021/04/07 13:20:30;;;;;;;23.83;14.02;;;;;;;;;;8293727;28;20456;-72
2021/04/07 13:24:35;;;;;;;23.52;10.95;;;;;;;;;;8292900;28;20378;-73
2021/04/07 13:28:39;;;;;;;19.83;11.70;;;;;;;;;;8293479;28;20056;-73
2021/04/07 13:32:53;;;;;;;31.33;17.88;;;;;;;;;;8292650;28;20074;-73
2021/04/07 13:37:01;;;;;;;86.38;32.80;;;;;;;;;;8293403;28;20475;-73
2021/04/07 13:41:27;;;;;;;49.87;22.13;;;;;;;;;;8292434;28;20481;-74
2021/04/07 13:45:34;;;;;;;25.95;13.13;;;;;;;;;;8293915;28;20048;-72
2021/04/07 13:49:39;;;;;;;24.55;14.05;;;;;;;;;;8292382;28;20363;-73
2021/04/07 13:53:46;;;;;;;25.02;12.70;;;;;;;;;;8292342;28;20351;-72
2021/04/07 13:57:51;;;;;;;19.60;7.78;;;;;;;;;;8293290;28;20488;-73
2021/04/07 14:01:57;;;;;;;27.48;12.15;;;;;;;;;;8292195;28;20409;-72
2021/04/07 14:06:07;;;;;;;22.85;12.85;;;;;;;;;;8291856;28;20082;-73
2021/04/07 14:10:14;;;;;;;47.75;27.48;;;;;;;;;;8291258;28;20061;-72
2021/04/07 14:14:19;;;;;;;17.55;9.85;;;;;;;;;;8290936;28;20066;-72
2021/04/07 14:18:23;;;;;;;34.25;16.92;;;;;;;;;;8289970;28;20044;-72
2021/04/07 14:22:28;;;;;;;18.27;7.15;;;;;;;;;;8289493;28;20344;-72
2021/04/07 14:26:33;;;;;;;11.70;5.47;;;;;;;;;;8291824;28;20071;-72
2021/04/07 14:30:41;;;;;;;186.75;65.85;;;;;;;;;;8289843;28;20074;-72
2021/04/07 14:34:45;;;;;;;185.38;69.65;;;;;;;;;;8290114;28;20045;-72
2021/04/07 14:38:49;;;;;;;125.18;48.10;;;;;;;;;;8305486;28;20482;-72
2021/04/07 14:42:52;;;;;;;578.88;292.15;;;;;;;;;;8291449;28;20497;-72
2021/04/07 14:46:57;;;;;;;148.10;59.10;;;;;;;;;;8290102;28;20468;-73
2021/04/07 14:51:02;;;;;;;199.77;77.97;;;;;;;;;;8289760;28;20442;-71
2021/04/07 14:55:08;;;;;;;144.30;60.45;;;;;;;;;;8304460;28;20382;-72
2021/04/07 14:59:12;;;;;;;141.98;63.20;;;;;;;;;;8287485;28;20386;-72
2021/04/07 15:03:20;;;;;;;187.68;51.00;;;;;;;;;;8288613;28;20463;-72
2021/04/07 15:07:24;;;;;;;151.25;43.22;;;;;;;;;;8287498;28;20464;-71
2021/04/07 15:11:28;;;;;;;56.22;21.65;;;;;;;;;;8286481;28;20379;-72
2021/04/07 15:15:33;;;;;;;24.83;12.27;;;;;;;;;;8271307;28;20048;-73
2021/04/07 15:19:37;;;;;;;30.80;16.38;;;;;;;;;;8290877;28;20489;-72
2021/04/07 15:23:42;;;;;;;13.98;7.35;;;;;;;;;;8289046;28;20391;-71
2021/04/07 15:28:30;;;;;;;22.63;8.50;;;;;;;;;;8290609;28;20466;-72
2021/04/07 15:32:15;;;;;;;40.22;11.10;;;;;;;;;;8289110;28;20106;-71
2021/04/07 15:36:19;;;;;;;14.30;4.70;;;;;;;;;;8290529;28;20467;-71
2021/04/07 15:40:24;;;;;;;22.55;6.55;;;;;;;;;;8291320;28;20052;-72
2021/04/07 15:44:28;;;;;;;9.98;3.42;;;;;;;;;;8287308;28;20509;-72
2021/04/07 15:48:33;;;;;;;15.57;4.93;;;;;;;;;;8288769;28;20393;-71
2021/04/07 15:52:37;;;;;;;12.65;4.25;;;;;;;;;;8290783;28;20397;-71
2021/04/07 15:56:42;;;;;;;16.58;7.55;;;;;;;;;;8289013;28;20506;-71
2021/04/07 16:00:46;;;;;;;15.85;6.53;;;;;;;;;;8289256;28;20666;-71
2021/04/07 16:04:51;;;;;;;16.33;8.30;;;;;;;;;;8294154;28;20451;-71
2021/04/07 16:08:55;;;;;;;8.57;3.78;;;;;;;;;;8296687;28;20362;-71
2021/04/07 16:12:59;;;;;;;51.50;17.00;;;;;;;;;;8297781;28;20352;-71
2021/04/07 16:17:06;;;;;;;36.65;11.95;;;;;;;;;;8294974;28;20348;-71
2021/04/07 16:21:12;;;;;;;25.52;8.50;;;;;;;;;;8293127;28;20489;-71
2021/04/07 16:25:17;;;;;;;40.55;13.35;;;;;;;;;;8309173;28;20048;-71
2021/04/07 16:29:24;;;;;;;30.38;9.13;;;;;;;;;;8293283;28;20375;-71
2021/04/07 16:33:28;;;;;;;23.63;8.48;;;;;;;;;;8292415;28;20048;-70
2021/04/07 16:37:33;;;;;;;29.90;8.15;;;;;;;;;;8292061;28;20345;-72
2021/04/07 16:41:36;;;;;;;10.23;3.72;;;;;;;;;;8293976;28;20401;-71
2021/04/07 16:45:41;;;;;;;14.52;5.25;;;;;;;;;;8293811;28;20471;-71
2021/04/07 16:49:46;;;;;;;15.57;5.32;;;;;;;;;;8292195;28;20479;-72
2021/04/07 16:53:51;;;;;;;9.90;4.10;;;;;;;;;;8293297;28;20532;-71
2021/04/07 16:57:56;;;;;;;14.88;5.70;;;;;;;;;;8291850;28;20360;-71
2021/04/07 17:01:59;;;;;;;24.83;10.43;;;;;;;;;;8292060;28;20448;-71
2021/04/07 17:06:04;;;;;;;52.38;23.00;;;;;;;;;;8294798;28;20467;-72
2021/04/07 17:10:09;;;;;;;59.40;27.35;;;;;;;;;;8292942;28;20405;-72
2021/04/07 17:14:17;;;;;;;41.20;15.57;;;;;;;;;;8294721;28;20379;-71
2021/04/07 17:18:22;;;;;;;27.65;9.38;;;;;;;;;;8292770;28;20384;-71
2021/04/07 17:27:47;;;;;;;51.45;21.58;;;;;;;;;;8292925;28;20495;-71
2021/04/07 17:31:52;;;;;;;76.10;29.00;;;;;;;;;;8292396;28;20102;-71
2021/04/07 17:35:57;;;;;;;119.00;45.25;;;;;;;;;;8292769;28;20344;-70
2021/04/07 17:40:01;;;;;;;136.90;66.00;;;;;;;;;;8291502;28;20455;-73
2021/04/07 17:44:06;;;;;;;57.58;27.23;;;;;;;;;;8293313;28;20348;-71
2021/04/07 17:48:12;;;;;;;20.48;8.57;;;;;;;;;;8293161;28;20481;-71
2021/04/07 17:52:21;;;;;;;20.63;7.57;;;;;;;;;;8293522;28;20443;-71
2021/04/07 17:56:26;;;;;;;23.98;6.80;;;;;;;;;;8291501;28;20372;-71
2021/04/07 18:00:31;;;;;;;13.77;4.72;;;;;;;;;;8306613;28;20375;-71
2021/04/07 18:04:35;;;;;;;17.90;6.10;;;;;;;;;;8289288;28;20056;-71
2021/04/07 18:08:40;;;;;;;14.20;5.75;;;;;;;;;;8290636;28;20458;-71
2021/04/07 18:12:50;;;;;;;15.43;5.40;;;;;;;;;;8290104;28;20526;-70
2021/04/07 18:17:13;;;;;;;38.97;11.60;;;;;;;;;;8290363;28;20048;-70
2021/04/07 18:21:18;;;;;;;33.97;10.32;;;;;;;;;;8291542;28;20472;-70
2021/04/07 18:25:23;;;;;;;48.42;15.98;;;;;;;;;;8291092;28;20418;-69
2021/04/07 18:29:27;;;;;;;65.47;20.00;;;;;;;;;;8289702;28;20497;-71
2021/04/07 18:33:34;;;;;;;55.08;15.68;;;;;;;;;;8288839;28;20374;-70
2021/04/07 18:37:40;;;;;;;52.33;16.90;;;;;;;;;;8290028;28;20523;-72
2021/04/07 18:41:43;;;;;;;49.22;15.90;;;;;;;;;;8287920;28;20444;-71
2021/04/07 18:45:48;;;;;;;44.25;15.38;;;;;;;;;;8290074;28;20056;-71
2021/04/07 18:49:56;;;;;;;22.85;11.65;;;;;;;;;;8305557;28;20444;-71
2021/04/07 18:54:01;;;;;;;14.90;6.63;;;;;;;;;;8305975;28;20378;-73
2021/04/07 18:58:07;;;;;;;30.63;7.47;;;;;;;;;;8288879;28;20467;-71
2021/04/07 19:02:12;;;;;;;143.43;31.63;;;;;;;;;;8290043;28;20462;-70
2021/04/07 19:06:16;;;;;;;318.63;75.80;;;;;;;;;;8289880;28;20052;-70
2021/04/07 19:10:21;;;;;;;122.63;39.63;;;;;;;;;;8289576;28;20400;-70
2021/04/07 19:14:26;;;;;;;57.00;16.67;;;;;;;;;;8291532;28;20413;-70
2021/04/07 19:18:30;;;;;;;71.55;19.73;;;;;;;;;;8289228;28;20390;-71
2021/04/07 19:22:35;;;;;;;53.75;15.90;;;;;;;;;;8289271;28;20387;-71
2021/04/07 19:26:39;;;;;;;94.75;24.00;;;;;;;;;;8291306;28;20482;-70
2021/04/07 19:30:43;;;;;;;281.80;57.45;;;;;;;;;;8291422;28;20052;-73
2021/04/07 19:34:48;;;;;;;434.05;100.57;;;;;;;;;;8289614;28;20478;-70
2021/04/07 19:38:53;;;;;;;117.63;37.08;;;;;;;;;;8291862;28;20455;-71
2021/04/07 19:42:57;;;;;;;117.80;34.17;;;;;;;;;;8295943;28;20467;-71
2021/04/07 19:47:02;;;;;;;90.43;30.25;;;;;;;;;;8295700;28;20379;-70
2021/04/07 19:51:07;;;;;;;360.20;68.43;;;;;;;;;;8296549;28;20406;-70
2021/04/07 19:55:23;;;;;;;350.52;61.45;;;;;;;;;;8294428;28;20405;-70
2021/04/07 19:59:27;;;;;;;116.30;26.88;;;;;;;;;;8295646;28;20045;-69
2021/04/07 20:03:30;;;;;;;204.55;38.92;;;;;;;;;;8295282;28;20475;-70
2021/04/07 20:07:37;;;;;;;72.82;21.23;;;;;;;;;;8296342;28;20489;-70
2021/04/07 20:11:42;;;;;;;56.20;19.88;;;;;;;;;;8295084;28;20379;-70
2021/04/07 20:15:47;;;;;;;55.97;19.27;;;;;;;;;;8294724;28;20380;-69
2021/04/07 20:19:54;;;;;;;64.28;20.45;;;;;;;;;;8294535;28;20456;-69
2021/04/07 20:23:59;;;;;;;56.60;19.15;;;;;;;;;;8294591;28;20368;-70
2021/04/07 20:28:05;;;;;;;59.42;19.73;;;;;;;;;;8295039;28;20383;-69
2021/04/07 20:32:11;;;;;;;78.22;25.02;;;;;;;;;;8294658;28;20355;-70
2021/04/07 20:36:16;;;;;;;273.65;53.83;;;;;;;;;;8294614;28;20481;-68
2021/04/07 20:40:21;;;;;;;142.07;41.42;;;;;;;;;;8294642;28;20479;-69
2021/04/07 20:44:26;;;;;;;195.75;40.70;;;;;;;;;;8295625;28;20448;-69
2021/04/07 20:48:32;;;;;;;100.95;27.50;;;;;;;;;;8294601;28;20071;-69
2021/04/07 20:52:36;;;;;;;197.60;37.80;;;;;;;;;;8293272;28;20455;-69
2021/04/07 20:56:40;;;;;;;227.48;48.25;;;;;;;;;;8293425;28;20382;-68
2021/04/07 21:00:46;;;;;;;212.07;43.53;;;;;;;;;;8293888;28;20403;-68
2021/04/07 21:04:50;;;;;;;105.32;28.88;;;;;;;;;;8293326;28;20072;-68
2021/04/07 21:08:55;;;;;;;109.07;25.90;;;;;;;;;;8308718;28;20458;-68
2021/04/07 21:13:01;;;;;;;94.30;25.80;;;;;;;;;;8293549;28;20086;-68
2021/04/07 21:17:05;;;;;;;117.45;28.92;;;;;;;;;;8293813;28;20048;-69
2021/04/07 21:21:09;;;;;;;110.47;26.48;;;;;;;;;;8295487;28;20738;-68
2021/04/07 21:25:13;;;;;;;77.07;22.83;;;;;;;;;;8292297;28;20044;-69
2021/04/07 21:29:18;;;;;;;126.65;31.92;;;;;;;;;;8292201;28;20483;-69
2021/04/07 21:33:23;;;;;;;131.10;33.33;;;;;;;;;;8293851;28;20576;-71
2021/04/07 21:37:32;;;;;;;118.97;29.75;;;;;;;;;;8292425;28;20447;-69
2021/04/07 21:41:37;;;;;;;119.82;30.25;;;;;;;;;;8292965;28;20049;-69
2021/04/07 21:45:41;;;;;;;46.30;18.70;;;;;;;;;;8291915;28;20478;-71
2021/04/07 21:49:50;;;;;;;59.45;19.10;;;;;;;;;;8307596;28;20395;-68
2021/04/07 21:53:54;;;;;;;63.08;19.50;;;;;;;;;;8291322;28;20485;-69
2021/04/07 21:57:58;;;;;;;42.08;15.52;;;;;;;;;;8289985;28;20471;-69
2021/04/07 22:02:03;;;;;;;84.40;25.27;;;;;;;;;;8291011;28;20509;-69
2021/04/07 22:06:08;;;;;;;55.63;18.45;;;;;;;;;;8290853;28;20498;-69
2021/04/07 22:10:27;;;;;;;78.15;23.20;;;;;;;;;;8292879;28;20471;-69
2021/04/07 22:14:32;;;;;;;48.40;18.75;;;;;;;;;;8289540;28;20574;-69
2021/04/07 22:18:37;;;;;;;54.30;18.17;;;;;;;;;;8290147;28;20716;-69
2021/04/07 22:22:49;;;;;;;53.50;19.10;;;;;;;;;;8290598;28;20080;-69
2021/04/07 22:26:54;;;;;;;57.00;19.58;;;;;;;;;;8291220;28;20451;-71
2021/04/07 22:31:05;;;;;;;48.85;18.63;;;;;;;;;;8288636;28;20414;-71
2021/04/07 22:35:13;;;;;;;62.92;22.35;;;;;;;;;;8290953;28;20048;-69
2021/04/07 22:39:19;;;;;;;40.28;14.52;;;;;;;;;;8291345;28;20456;-69
2021/04/07 22:43:24;;;;;;;48.40;17.40;;;;;;;;;;8289005;28;20354;-70
2021/04/07 22:47:28;;;;;;;44.97;17.77;;;;;;;;;;8288965;28;20395;-70
2021/04/07 22:51:32;;;;;;;38.13;17.08;;;;;;;;;;8290373;28;20111;-70
2021/04/07 22:55:42;;;;;;;41.42;20.05;;;;;;;;;;8292229;28;20383;-70
2021/04/07 22:59:46;;;;;;;41.47;19.05;;;;;;;;;;8290983;28;20470;-69
2021/04/07 23:03:49;;;;;;;55.90;21.63;;;;;;;;;;8292688;28;20071;-70
2021/04/07 23:07:52;;;;;;;53.67;19.58;;;;;;;;;;8290080;28;20508;-70
2021/04/07 23:11:58;;;;;;;40.00;18.42;;;;;;;;;;8291866;28;20473;-71
2021/04/07 23:16:03;;;;;;;36.67;17.67;;;;;;;;;;8289129;28;20053;-70
2021/04/07 23:20:09;;;;;;;37.45;17.42;;;;;;;;;;8291249;28;20439;-70
2021/04/07 23:24:13;;;;;;;41.30;16.90;;;;;;;;;;8290434;28;20372;-69
2021/04/07 23:28:18;;;;;;;42.35;19.58;;;;;;;;;;8288848;28;20497;-69
2021/04/07 23:32:22;;;;;;;44.83;18.20;;;;;;;;;;8291488;28;20367;-70
2021/04/07 23:36:26;;;;;;;42.47;17.60;;;;;;;;;;8290099;28;20436;-70
2021/04/07 23:40:31;;;;;;;35.65;15.23;;;;;;;;;;8289582;28;20553;-70
2021/04/07 23:44:38;;;;;;;33.78;14.90;;;;;;;;;;8289430;28;20533;-69
2021/04/07 23:48:43;;;;;;;37.78;17.58;;;;;;;;;;8289312;28;20402;-69
2021/04/07 23:52:48;;;;;;;38.55;17.73;;;;;;;;;;8289464;28;20460;-70
2021/04/07 23:56:52;;;;;;;34.25;15.20;;;;;;;;;;8289273;28;20079;-70
